Etusivu
METAR-TAF:

METAR-TAF

Lentoasemat :

Kristiansund, Norja

Leveyspiiri: 63-07N, Pituuspiiri: 007-50E, korkeus merenpinnasta: 6 m

Tämänhetkinen sää

Tämä raportti tehtiin 33 minuuttia sitten, kello 23.50 UTC
Tuuli 6 kn pohjoisesta
Lämpötila 9°C
Kosteus 81%
Ilmanpaine 1011 hPa
Näkyvyys 10 km tai enemmän

METAR: ENKB 282350Z AUTO 01006KT 9999 NCD 09/06 Q1011 RMK WIND 745FT 05008KT

Aika: 02:23 (00:23 UTC)

Sääennuste

Tämä raportti tehtiin 10 tuntia ja 23 minuuttia sitten, kello 14.00 UTC
Ennuste voimassa 28. päivästä klo 15 UTC - 28. päivään klo 20 UTC
Tuuli 15 kn pohjoisesta/koillisesta
Näkyvyys 10 km tai enemmän
ei pilviä alle 1500 m:ssä eikä cumulonimbus-pilviä

TAF: ENKB 281400Z 2815/2820 02015KT CAVOK

Säähavainnot ja -ennusteet yli 4000 lentoasemalta (METAR- ja TAF-raportit).

Käytössä olevat sääasemat on merkitty karttaan keltaisilla ja punaisilla pisteillä.

Aseta hiiri pisteen päälle nähdäksesi sääaseman nimen.

Klikkaa sitten nähdäksesi säähavainnot ja -ennusteet.

Kartan vaihtaminen: klikkaa mustalla rastilla varustettuja vihreitä pisteitä, niin voit zoomata sisään; viivalla varustettua vihreää pistettä, niin voit zoomata ulos tai vihreitä nuolia, niin pääset viereisille kartoille.


METAR-TAF: